Time;durP1;ratioP1;P1;durP2;ratioP2;P2;SDS_P1;SDS_P2;PMS_P1;PMS_P2;Temp;Humidity;BMP_temperature;BMP_pressure;BME280_temperature;BME280_humidity;BME280_pressure;Samples;Min_cycle;Max_cycle;Signal;HPM_P1;HPM_P2
2024/02/19 00:00:15;;;;;;;54.30;11.23;;;9.90;99.90;;;10.20;100.00;102624.56;5034981;28;20049;-60
2024/02/19 00:02:44;;;;;;;48.35;9.32;;;9.90;99.90;;;10.24;100.00;102635.25;5033938;28;20049;-60
2024/02/19 00:05:12;;;;;;;49.78;9.88;;;10.00;99.90;;;10.23;100.00;102637.84;5035168;28;20116;-61
2024/02/19 00:07:41;;;;;;;49.60;9.77;;;10.00;99.90;;;10.29;100.00;102640.66;5033877;28;20099;-61
2024/02/19 00:10:11;;;;;;;41.17;8.45;;;10.00;99.90;;;10.24;100.00;102642.31;5035595;28;20072;-60
2024/02/19 00:12:39;;;;;;;43.55;8.65;;;10.00;99.90;;;10.43;100.00;102636.63;5035073;28;20057;-60
2024/02/19 00:15:09;;;;;;;38.65;8.88;;;10.10;99.90;;;10.53;100.00;102630.69;5034625;28;20099;-61
2024/02/19 00:17:37;;;;;;;48.47;9.82;;;10.20;99.90;;;10.60;100.00;102625.59;5035100;28;20072;-60
2024/02/19 00:20:08;;;;;;;45.13;9.13;;;10.40;99.90;;;10.61;100.00;102642.31;5033525;28;20443;-60
2024/02/19 00:22:36;;;;;;;55.55;8.63;;;10.30;99.90;;;10.51;100.00;102629.75;5034886;28;20042;-60
2024/02/19 00:25:05;;;;;;;39.30;9.35;;;10.30;99.90;;;10.59;100.00;102629.06;5033407;28;20510;-61
2024/02/19 00:27:35;;;;;;;49.05;9.60;;;10.30;99.90;;;10.59;100.00;102636.09;5035056;28;20057;-61
2024/02/19 00:30:05;;;;;;;40.00;8.07;;;10.40;99.90;;;10.71;100.00;102636.41;5034691;28;20049;-61
2024/02/19 00:32:33;;;;;;;39.47;8.02;;;10.50;99.90;;;10.67;100.00;102651.31;5033521;28;20053;-60
2024/02/19 00:35:02;;;;;;;40.47;7.82;;;10.50;99.90;;;10.67;100.00;102640.72;5033971;28;20050;-60
2024/02/19 00:37:30;;;;;;;47.97;9.25;;;10.40;99.90;;;10.63;100.00;102645.91;5033167;28;20042;-60
2024/02/19 00:39:59;;;;;;;39.17;8.18;;;10.40;99.90;;;10.68;100.00;102647.81;5034119;28;20430;-60
2024/02/19 00:42:28;;;;;;;46.03;9.18;;;10.50;99.90;;;10.62;100.00;102650.34;5034099;28;20451;-60
2024/02/19 00:44:58;;;;;;;37.97;8.25;;;10.40;99.90;;;10.63;100.00;102649.47;5034303;28;20045;-61
2024/02/19 00:47:26;;;;;;;45.80;8.95;;;10.40;99.90;;;10.60;100.00;102638.81;5034343;28;20107;-60
2024/02/19 00:49:55;;;;;;;43.33;8.45;;;10.40;99.90;;;10.58;100.00;102635.25;5034439;28;20320;-60
2024/02/19 00:52:24;;;;;;;36.55;8.88;;;10.40;99.90;;;10.60;100.00;102644.09;5033911;28;20053;-60
2024/02/19 00:54:52;;;;;;;42.70;8.85;;;10.40;99.90;;;10.65;100.00;102645.09;5032715;28;20049;-60
2024/02/19 00:57:20;;;;;;;39.33;8.15;;;10.40;99.90;;;10.58;100.00;102608.78;5034118;28;20041;-60
2024/02/19 00:59:49;;;;;;;39.95;7.93;;;10.50;99.90;;;10.80;100.00;102647.22;5034288;28;20065;-60
2024/02/19 01:02:19;;;;;;;38.33;8.00;;;10.50;99.90;;;10.75;100.00;102640.91;5033656;28;20530;-60
2024/02/19 01:04:49;;;;;;;36.72;8.27;;;10.50;99.90;;;10.78;100.00;102647.16;5034009;28;20140;-61
2024/02/19 01:07:17;;;;;;;32.85;7.63;;;10.50;99.90;;;10.72;100.00;102640.84;5034092;28;20050;-61
2024/02/19 01:09:46;;;;;;;35.75;8.35;;;10.50;99.90;;;10.83;100.00;102636.69;5033821;28;20046;-60
2024/02/19 01:12:14;;;;;;;43.97;8.38;;;10.60;99.90;;;10.80;100.00;102642.81;5033689;28;20066;-60
2024/02/19 01:14:43;;;;;;;36.92;7.97;;;10.60;99.90;;;10.88;100.00;102641.22;5033392;28;20111;-61
2024/02/19 01:17:11;;;;;;;36.10;8.05;;;10.60;99.90;;;10.86;100.00;102639.41;5032150;28;20068;-60
2024/02/19 01:19:41;;;;;;;37.55;7.93;;;10.60;99.90;;;10.76;100.00;102650.66;5033624;28;20175;-60
2024/02/19 01:22:10;;;;;;;38.60;8.57;;;10.50;99.90;;;10.84;100.00;102647.31;5032213;28;20155;-61
2024/02/19 01:24:39;;;;;;;35.13;8.13;;;10.60;99.90;;;10.83;100.00;102652.56;5033467;28;20422;-63
2024/02/19 01:27:07;;;;;;;35.25;8.73;;;10.60;99.90;;;11.03;100.00;102650.38;5033121;28;20037;-60
2024/02/19 01:29:35;;;;;;;26.80;7.03;;;10.70;99.90;;;10.95;100.00;102629.03;5033478;28;20053;-60
2024/02/19 01:32:05;;;;;;;39.60;8.65;;;10.70;99.90;;;11.08;100.00;102646.97;5033006;28;20503;-61
2024/02/19 01:34:33;;;;;;;36.13;8.63;;;10.80;99.90;;;10.98;100.00;102647.63;5033039;28;20075;-60
2024/02/19 01:37:04;;;;;;;22.10;7.00;;;10.70;99.90;;;10.96;100.00;102653.72;5033064;28;20042;-60
2024/02/19 01:39:33;;;;;;;39.85;9.07;;;10.70;99.90;;;11.00;100.00;102645.00;5031672;28;20053;-61
2024/02/19 01:42:03;;;;;;;30.83;7.70;;;10.70;99.90;;;11.01;100.00;102647.72;5032083;28;20088;-60
2024/02/19 01:44:31;;;;;;;31.70;8.20;;;10.70;99.90;;;10.94;100.00;102656.34;5032903;28;20054;-60
2024/02/19 01:47:00;;;;;;;28.35;6.75;;;10.70;99.90;;;11.05;100.00;102652.22;5031777;28;20088;-62
2024/02/19 01:49:29;;;;;;;34.03;8.15;;;10.70;99.90;;;11.13;100.00;102655.91;5032643;28;20491;-60
2024/02/19 01:51:59;;;;;;;30.17;6.95;;;10.80;99.90;;;11.07;100.00;102658.41;5032676;28;20128;-61
2024/02/19 01:54:28;;;;;;;36.37;8.13;;;10.80;99.90;;;11.09;100.00;102655.81;5032738;28;20550;-61
2024/02/19 01:56:57;;;;;;;34.87;8.23;;;10.80;99.90;;;11.11;100.00;102644.38;5032567;28;20075;-60
2024/02/19 01:59:27;;;;;;;30.80;6.47;;;10.80;99.90;;;11.17;100.00;102647.16;5032520;28;20358;-60
2024/02/19 02:01:56;;;;;;;28.02;7.07;;;10.90;99.90;;;11.06;100.00;102637.19;5031194;28;20191;-60
2024/02/19 02:04:26;;;;;;;35.70;8.27;;;10.90;99.90;;;11.25;100.00;102648.22;5032508;28;20041;-60
2024/02/19 02:06:55;;;;;;;31.23;7.18;;;11.00;99.90;;;11.23;100.00;102644.66;5032452;28;20488;-60
2024/02/19 02:09:24;;;;;;;31.95;7.22;;;10.90;99.90;;;11.15;100.00;102638.28;5032717;28;20501;-60
2024/02/19 02:11:54;;;;;;;28.05;7.35;;;10.90;99.90;;;11.13;100.00;102628.53;5032389;28;20057;-60
2024/02/19 02:14:22;;;;;;;27.63;6.83;;;10.90;99.90;;;11.12;100.00;102630.28;5033018;28;20054;-61
2024/02/19 02:16:50;;;;;;;28.77;7.35;;;10.90;99.90;;;11.16;100.00;102631.25;5032300;28;20041;-60
2024/02/19 02:19:19;;;;;;;28.40;7.68;;;10.90;99.90;;;11.14;100.00;102636.50;5031374;28;20544;-60
2024/02/19 02:21:48;;;;;;;28.27;7.80;;;10.90;99.90;;;11.10;100.00;102636.41;5032374;28;20049;-61
2024/02/19 02:24:18;;;;;;;27.92;7.50;;;10.90;99.90;;;11.15;100.00;102643.59;5032259;28;20509;-60
2024/02/19 02:26:48;;;;;;;29.60;7.60;;;10.90;99.90;;;11.15;100.00;102646.22;5032315;28;20590;-60
2024/02/19 02:29:16;;;;;;;24.33;6.50;;;10.90;99.90;;;11.20;100.00;102644.59;5032516;28;20497;-60
2024/02/19 02:31:44;;;;;;;25.25;7.10;;;10.90;99.90;;;11.32;100.00;102647.50;5032246;28;20280;-61
2024/02/19 02:34:13;;;;;;;22.67;7.15;;;11.10;99.90;;;11.37;100.00;102648.50;5032547;28;20048;-60
2024/02/19 02:36:42;;;;;;;29.73;7.38;;;11.10;99.90;;;11.36;100.00;102648.47;5032382;28;20042;-61
2024/02/19 02:39:10;;;;;;;25.45;6.60;;;11.20;99.90;;;11.38;100.00;102652.03;5031471;28;20522;-60
2024/02/19 02:41:38;;;;;;;26.30;8.07;;;11.20;99.90;;;11.43;100.00;102639.78;5031227;28;20083;-63
2024/02/19 02:44:08;;;;;;;23.13;6.88;;;11.30;99.90;;;11.50;100.00;102639.03;5032282;28;20395;-60
2024/02/19 02:46:37;;;;;;;29.20;7.55;;;11.30;99.90;;;11.55;100.00;102643.56;5030773;28;20053;-60
2024/02/19 02:49:05;;;;;;;23.92;7.05;;;11.30;99.90;;;11.52;100.00;102637.28;5032020;28;20049;-61
2024/02/19 02:51:34;;;;;;;25.00;6.97;;;11.30;99.90;;;11.50;100.00;102625.78;5031983;28;20049;-62
2024/02/19 02:54:02;;;;;;;22.98;7.45;;;11.30;99.90;;;11.49;100.00;102635.50;5031894;28;20048;-60
2024/02/19 02:56:30;;;;;;;22.73;6.65;;;11.30;99.90;;;11.62;100.00;102623.38;5030840;28;20046;-60
2024/02/19 02:58:59;;;;;;;21.60;7.00;;;11.40;99.90;;;11.79;100.00;102622.84;5034512;28;20190;-60
2024/02/19 03:01:30;;;;;;;22.25;6.82;;;11.60;99.90;;;11.76;100.00;102606.91;5036261;28;20075;-61
2024/02/19 03:03:59;;;;;;;19.80;6.47;;;11.60;99.90;;;11.92;100.00;102624.00;5036276;28;20088;-60
2024/02/19 03:06:27;;;;;;;19.35;7.50;;;11.70;99.90;;;11.91;100.00;102614.25;5036283;28;20045;-61
2024/02/19 03:08:56;;;;;;;31.38;7.40;;;11.70;99.90;;;11.94;100.00;102621.38;5035800;28;20042;-62
2024/02/19 03:11:24;;;;;;;28.88;7.10;;;11.70;99.90;;;11.98;100.00;102615.25;5035924;28;20041;-60
2024/02/19 03:13:53;;;;;;;22.42;6.55;;;11.80;99.90;;;12.05;100.00;102615.38;5034380;28;20053;-62
2024/02/19 03:16:21;;;;;;;30.15;7.32;;;11.80;99.90;;;12.08;99.98;102610.13;5035647;28;20041;-61
2024/02/19 03:18:53;;;;;;;21.90;6.70;;;11.90;99.90;;;12.11;99.93;102610.19;5035952;28;20128;-60
2024/02/19 03:21:22;;;;;;;21.25;7.13;;;11.90;99.90;;;12.18;99.37;102597.91;5035888;28;20048;-61
2024/02/19 03:23:52;;;;;;;21.67;6.97;;;11.90;99.90;;;12.29;98.94;102591.03;5034458;28;20037;-60
2024/02/19 03:26:25;;;;;;;20.27;6.20;;;12.00;99.90;;;12.29;98.76;102575.97;5035533;28;20499;-61
2024/02/19 03:29:12;;;;;;;21.55;6.55;;;12.00;99.90;;;12.38;98.77;102584.13;5035736;28;20056;-61
2024/02/19 03:31:43;;;;;;;18.17;7.40;;;12.10;99.90;;;12.43;98.39;102587.72;5034674;28;20140;-60
2024/02/19 03:34:13;;;;;;;25.25;7.60;;;12.10;99.90;;;12.44;98.18;102589.53;5035789;28;20045;-60
2024/02/19 03:36:49;;;;;;;20.83;6.90;;;12.20;99.90;;;12.39;97.73;102596.50;5035699;28;20049;-60
2024/02/19 03:39:18;;;;;;;19.63;6.47;;;12.10;99.90;;;12.47;97.54;102604.56;5035631;28;20143;-60
2024/02/19 03:41:47;;;;;;;24.00;7.35;;;12.20;99.90;;;12.50;97.23;102602.00;5035096;28;20037;-60
2024/02/19 03:44:16;;;;;;;23.15;6.93;;;12.20;99.90;;;12.50;96.54;102599.34;5035416;28;20049;-60
2024/02/19 03:46:45;;;;;;;20.38;6.80;;;12.20;99.90;;;12.34;96.24;102605.25;5035095;28;20045;-61
2024/02/19 03:49:15;;;;;;;20.10;7.10;;;12.10;99.90;;;12.36;96.80;102606.19;5034001;28;20053;-60
2024/02/19 03:51:44;;;;;;;21.98;6.85;;;12.10;99.90;;;12.29;96.41;102605.16;5035003;28;20050;-60
2024/02/19 03:54:13;;;;;;;19.95;7.10;;;12.10;99.90;;;12.30;97.06;102611.38;5034944;28;20045;-60
2024/02/19 03:56:42;;;;;;;22.17;6.70;;;12.10;99.90;;;12.24;98.55;102598.91;5035380;28;20053;-60
2024/02/19 03:59:11;;;;;;;25.35;7.32;;;12.00;99.90;;;12.29;99.07;102599.00;5034745;28;20115;-61
2024/02/19 04:01:39;;;;;;;22.77;6.65;;;12.00;99.90;;;12.38;99.41;102604.44;5035361;28;20486;-60
2024/02/19 04:04:08;;;;;;;23.80;7.55;;;12.10;99.90;;;12.34;99.94;102608.81;5034702;28;20076;-60
2024/02/19 04:06:38;;;;;;;20.15;7.20;;;12.10;99.90;;;12.36;100.00;102604.44;5035302;28;20080;-61
2024/02/19 04:09:06;;;;;;;20.02;7.25;;;12.10;99.90;;;12.35;100.00;102594.66;5034255;28;20061;-61
2024/02/19 04:11:35;;;;;;;18.55;6.78;;;12.20;99.90;;;12.36;100.00;102606.19;5034027;28;20479;-61
2024/02/19 04:14:03;;;;;;;21.02;6.50;;;12.10;99.90;;;12.27;100.00;102612.22;5034864;28;20053;-60
2024/02/19 04:16:31;;;;;;;18.13;6.88;;;12.00;99.90;;;12.37;100.00;102610.59;5034762;28;20045;-60
2024/02/19 04:19:00;;;;;;;17.08;6.47;;;12.00;99.90;;;12.40;100.00;102611.56;5033423;28;20111;-60
2024/02/19 04:21:28;;;;;;;25.88;7.38;;;12.10;99.90;;;12.33;100.00;102614.09;5034431;28;20033;-61
2024/02/19 04:23:58;;;;;;;17.65;6.18;;;12.10;99.90;;;11.64;100.00;102486.47;5033260;28;20057;-61
2024/02/19 04:26:26;;;;;;;28.80;7.47;;;12.10;99.90;;;12.25;100.00;102608.63;5034429;28;20064;-60
2024/02/19 04:28:56;;;;;;;20.50;6.65;;;12.00;99.90;;;12.27;100.00;102603.38;5034286;28;20107;-60
2024/02/19 04:31:24;;;;;;;21.02;7.13;;;12.00;99.90;;;12.25;100.00;102613.06;5034502;28;20061;-60
2024/02/19 04:33:53;;;;;;;16.10;6.80;;;12.00;99.90;;;12.13;100.00;102615.50;5034184;28;20049;-63
2024/02/19 04:36:21;;;;;;;19.45;6.82;;;11.90;99.90;;;12.12;100.00;102616.38;5034778;28;20116;-60
2024/02/19 04:38:49;;;;;;;22.08;7.45;;;11.90;99.90;;;12.15;100.00;102611.13;5034106;28;20136;-60
2024/02/19 04:41:19;;;;;;;22.25;6.72;;;11.90;99.90;;;12.19;100.00;102611.22;5034689;28;20049;-62
2024/02/19 04:43:48;;;;;;;19.90;6.30;;;12.00;99.90;;;12.15;100.00;102616.44;5033062;28;20089;-60
2024/02/19 04:46:16;;;;;;;18.25;6.72;;;12.00;99.90;;;12.20;100.00;102609.44;5034394;28;20049;-60
2024/02/19 04:48:45;;;;;;;18.83;7.00;;;12.00;99.90;;;12.25;100.00;102597.16;5034097;28;20148;-61
2024/02/19 04:51:14;;;;;;;20.38;6.95;;;12.00;99.90;;;12.21;100.00;102605.94;5033993;28;20056;-62
2024/02/19 04:53:42;;;;;;;21.13;6.90;;;12.00;99.90;;;12.23;100.00;102594.44;5034306;28;20124;-60
2024/02/19 04:56:15;;;;;;;18.65;7.30;;;12.00;99.90;;;12.30;100.00;102598.13;5033900;28;20065;-61
2024/02/19 04:58:45;;;;;;;20.55;7.45;;;12.00;99.90;;;12.35;100.00;102594.66;5033930;28;20040;-60
2024/02/19 05:01:13;;;;;;;22.83;7.13;;;12.10;99.90;;;12.40;100.00;102597.41;5033857;28;20044;-60
2024/02/19 05:03:42;;;;;;;19.48;6.65;;;12.20;99.90;;;12.43;100.00;102601.00;5034193;28;20107;-60
2024/02/19 05:06:10;;;;;;;29.13;7.10;;;12.20;99.90;;;12.49;100.00;102593.13;5033871;28;20050;-61
2024/02/19 05:08:39;;;;;;;21.02;6.47;;;12.30;99.90;;;12.50;100.00;102594.88;5034116;28;20057;-61
2024/02/19 05:11:08;;;;;;;19.35;6.53;;;12.30;99.90;;;12.57;100.00;102582.63;5033710;28;20052;-60
2024/02/19 05:13:36;;;;;;;19.00;6.28;;;12.30;99.90;;;12.52;100.00;102602.91;5033510;28;20049;-61
2024/02/19 05:16:07;;;;;;;22.73;6.82;;;12.30;99.90;;;12.42;100.00;102587.69;5033519;28;20049;-61
2024/02/19 05:18:36;;;;;;;16.35;6.53;;;12.20;99.90;;;12.32;100.00;102599.94;5033542;28;20053;-61
2024/02/19 05:21:06;;;;;;;20.55;6.97;;;12.10;99.90;;;12.36;100.00;102587.59;5033489;28;20042;-61
2024/02/19 05:23:34;;;;;;;26.80;7.17;;;12.20;99.90;;;12.36;100.00;102601.78;5033960;28;20053;-61
2024/02/19 05:26:04;;;;;;;19.75;7.07;;;12.20;99.90;;;12.38;100.00;102599.13;5033593;28;20450;-61
2024/02/19 05:28:36;;;;;;;19.98;6.65;;;12.20;99.90;;;12.22;100.00;102603.28;5032204;28;20466;-62
2024/02/19 05:31:06;;;;;;;19.02;6.70;;;12.10;99.90;;;12.23;100.00;102605.06;5033427;28;20424;-61
2024/02/19 05:33:35;;;;;;;19.23;6.55;;;12.00;99.90;;;12.32;100.00;102593.72;5033500;28;20045;-61
2024/02/19 05:36:03;;;;;;;17.90;6.70;;;12.10;99.90;;;12.43;100.00;102597.44;5033283;28;20080;-61
2024/02/19 05:38:32;;;;;;;19.42;7.03;;;12.20;99.90;;;12.43;100.00;102595.69;5033171;28;20053;-62
2024/02/19 05:41:04;;;;;;;19.25;6.72;;;12.20;99.90;;;12.44;100.00;102597.47;5032930;28;20049;-61
2024/02/19 05:43:32;;;;;;;23.00;8.00;;;12.30;99.90;;;12.48;100.00;102591.34;5032921;28;20060;-62
2024/02/19 05:46:01;;;;;;;22.50;7.53;;;12.30;99.90;;;12.43;100.00;102589.47;5033270;28;20049;-61
2024/02/19 05:48:31;;;;;;;19.00;8.15;;;12.30;99.90;;;12.51;100.00;102593.13;5032818;28;20120;-61
2024/02/19 05:51:03;;;;;;;18.05;7.90;;;12.30;99.90;;;12.53;100.00;102586.09;5032884;28;20083;-61
2024/02/19 05:53:32;;;;;;;17.83;7.30;;;12.30;99.90;;;12.53;100.00;102588.75;5032797;28;20398;-61
2024/02/19 05:56:00;;;;;;;16.55;7.22;;;12.30;99.90;;;12.57;100.00;102577.31;5032735;28;20076;-61
2024/02/19 05:58:29;;;;;;;21.52;8.07;;;12.30;99.90;;;12.65;100.00;102579.22;5032632;28;20057;-61
2024/02/19 06:00:57;;;;;;;21.80;8.75;;;12.40;99.90;;;12.59;100.00;102578.22;5032553;28;20049;-61
2024/02/19 06:03:26;;;;;;;21.95;7.55;;;12.40;99.90;;;12.70;100.00;102568.66;5032562;28;20051;-61
2024/02/19 06:05:56;;;;;;;17.17;7.65;;;12.50;99.90;;;12.73;100.00;102571.34;5032814;28;20127;-61
2024/02/19 06:08:24;;;;;;;20.05;7.32;;;12.50;99.90;;;12.65;99.71;102580.97;5031507;28;20497;-62
2024/02/19 06:10:54;;;;;;;19.10;7.28;;;12.50;99.90;;;12.63;100.00;102582.72;5032933;28;20340;-61
2024/02/19 06:13:22;;;;;;;18.00;7.90;;;12.40;99.90;;;12.70;100.00;102589.88;5031187;28;20046;-61
2024/02/19 06:15:51;;;;;;;23.33;8.10;;;12.40;99.90;;;12.71;100.00;102591.69;5032278;28;20152;-62
2024/02/19 06:18:19;;;;;;;22.58;7.25;;;12.40;99.90;;;12.67;100.00;102592.50;5032226;28;20064;-61
2024/02/19 06:20:48;;;;;;;20.63;8.35;;;12.40;99.90;;;12.65;100.00;102595.16;5032403;28;20056;-61
2024/02/19 06:23:18;;;;;;;23.52;8.82;;;12.40;99.90;;;12.61;100.00;102606.59;5032228;28;20111;-61
2024/02/19 06:25:46;;;;;;;17.35;8.05;;;12.40;99.90;;;12.59;100.00;102588.84;5032405;28;20045;-61
2024/02/19 06:28:15;;;;;;;27.27;8.65;;;12.30;99.90;;;12.58;100.00;102592.38;5032310;28;20554;-61
2024/02/19 06:30:43;;;;;;;21.33;8.80;;;12.30;99.90;;;12.54;100.00;102593.22;5032677;28;20124;-61
2024/02/19 06:33:12;;;;;;;23.25;8.40;;;12.20;99.90;;;12.51;100.00;102590.47;5031536;28;20368;-61
2024/02/19 06:35:41;;;;;;;25.63;9.48;;;12.20;99.90;;;12.48;100.00;102571.88;5032173;28;20124;-61
2024/02/19 06:38:09;;;;;;;24.50;8.90;;;12.20;99.90;;;12.45;100.00;102569.16;5032043;28;20069;-61
2024/02/19 06:40:39;;;;;;;20.25;8.20;;;12.20;99.90;;;12.46;100.00;102586.88;5032107;28;20080;-61
2024/02/19 06:43:07;;;;;;;23.70;9.33;;;12.10;99.90;;;12.46;100.00;102577.16;5032108;28;20042;-61
2024/02/19 06:45:36;;;;;;;22.92;8.95;;;12.20;99.90;;;12.38;100.00;102605.34;5032303;28;20041;-61
2024/02/19 06:48:06;;;;;;;25.48;8.38;;;12.10;99.90;;;12.37;100.00;102592.94;5032166;28;20550;-61
2024/02/19 06:50:35;;;;;;;27.48;9.50;;;12.10;99.90;;;12.35;100.00;102589.34;5032387;28;20132;-61
2024/02/19 06:53:05;;;;;;;24.00;8.90;;;12.10;99.90;;;12.36;100.00;102588.50;5032512;28;20049;-61
2024/02/19 06:55:34;;;;;;;24.05;8.95;;;12.00;99.90;;;12.32;100.00;102584.00;5032462;28;20049;-60
2024/02/19 06:58:04;;;;;;;23.08;8.77;;;12.00;99.90;;;12.27;100.00;102564.44;5032267;28;20394;-62
2024/02/19 07:00:32;;;;;;;24.75;8.90;;;12.00;99.90;;;12.43;100.00;102563.81;5032486;28;20045;-61
2024/02/19 07:03:01;;;;;;;18.48;8.15;;;12.10;99.90;;;12.40;100.00;102570.84;5032417;28;20037;-61
2024/02/19 07:05:29;;;;;;;25.00;8.35;;;12.10;99.90;;;12.42;100.00;102561.16;5032335;28;20064;-61
2024/02/19 07:07:58;;;;;;;23.52;8.05;;;12.10;99.90;;;12.29;100.00;102556.53;5031984;28;20046;-61
2024/02/19 07:10:26;;;;;;;26.48;8.13;;;12.00;99.90;;;12.23;100.00;102561.75;5030725;28;20144;-61
2024/02/19 07:12:55;;;;;;;25.58;7.90;;;12.00;99.90;;;12.15;100.00;102566.03;5031879;28;20057;-61
2024/02/19 07:15:25;;;;;;;28.85;8.63;;;11.90;99.90;;;12.19;100.00;102568.78;5030437;28;20053;-61
2024/02/19 07:17:53;;;;;;;24.10;8.03;;;11.90;99.90;;;12.19;100.00;102559.91;5032146;28;20041;-61
2024/02/19 07:20:21;;;;;;;24.98;8.32;;;11.90;99.90;;;12.09;100.00;102547.34;5031856;28;20222;-61
2024/02/19 07:22:50;;;;;;;24.92;8.15;;;11.90;99.90;;;12.24;100.00;102552.91;5032118;28;20057;-61
2024/02/19 07:25:18;;;;;;;24.33;8.55;;;11.90;99.90;;;12.29;100.00;102561.84;5031834;28;20095;-61
2024/02/19 07:27:49;;;;;;;21.40;8.10;;;12.00;99.90;;;12.41;100.00;102556.69;5031980;28;20049;-61
2024/02/19 07:30:18;;;;;;;25.88;7.65;;;12.10;99.90;;;12.48;100.00;102555.94;5031851;28;20041;-61
2024/02/19 07:32:48;;;;;;;25.30;7.90;;;12.20;99.90;;;12.43;100.00;102554.97;5031582;28;20069;-61
2024/02/19 07:35:17;;;;;;;31.93;8.60;;;12.20;99.90;;;12.40;100.00;102570.84;5030463;28;20420;-61
2024/02/19 07:37:45;;;;;;;27.35;7.97;;;12.10;99.90;;;12.38;100.00;102564.63;5031509;28;20292;-61
2024/02/19 07:40:13;;;;;;;23.30;7.43;;;12.10;99.90;;;12.41;100.00;102551.41;5031662;28;20052;-61
2024/02/19 07:42:42;;;;;;;24.73;8.02;;;12.10;99.90;;;12.46;100.00;102560.34;5031712;28;20060;-61
2024/02/19 07:45:11;;;;;;;22.13;7.50;;;12.10;99.90;;;12.41;100.00;102567.31;5034166;28;20482;-61
2024/02/19 07:47:39;;;;;;;20.83;8.00;;;12.10;99.90;;;12.34;100.00;102581.38;5034187;28;20438;-61
2024/02/19 07:50:10;;;;;;;23.60;7.75;;;12.10;99.90;;;12.35;100.00;102577.88;5035042;28;20061;-62
2024/02/19 07:52:38;;;;;;;;;;;12.10;99.90;;;12.39;100.00;102577.91;5035787;28;20453;-61
2024/02/19 07:55:08;;;;;;;19.60;6.85;;;12.10;99.90;;;12.32;100.00;102594.63;5035355;28;20409;-63
2024/02/19 07:57:36;;;;;;;20.85;7.22;;;12.10;99.90;;;12.32;100.00;102602.59;5035246;28;20042;-61
2024/02/19 08:00:08;;;;;;;19.02;7.25;;;12.00;99.90;;;12.34;100.00;102606.16;5033765;28;20115;-61
2024/02/19 08:02:37;;;;;;;21.52;7.35;;;12.10;99.90;;;12.35;100.00;102599.97;5035504;28;20128;-62
2024/02/19 08:05:06;;;;;;;20.25;6.78;;;12.10;99.90;;;12.36;100.00;102595.56;5035084;28;20076;-61
2024/02/19 08:07:37;;;;;;;19.63;6.87;;;12.00;99.90;;;12.31;100.00;102614.06;5034766;28;20037;-63
2024/02/19 08:10:07;;;;;;;19.52;6.68;;;12.00;99.90;;;12.31;100.00;102615.84;5035335;28;20187;-61
2024/02/19 08:12:35;;;;;;;21.37;7.23;;;12.00;99.90;;;12.30;100.00;102616.69;5034849;28;20443;-62
2024/02/19 08:15:10;;;;;;;18.67;6.82;;;12.00;99.90;;;12.34;100.00;102616.78;5034656;28;20315;-61
2024/02/19 08:17:38;;;;;;;21.15;6.55;;;12.10;99.90;;;12.38;100.00;102630.97;5034869;28;20052;-62
2024/02/19 08:20:09;;;;;;;23.85;6.57;;;12.10;99.90;;;12.35;100.00;102625.63;5034538;28;20041;-61
2024/02/19 08:22:39;;;;;;;;;;;12.10;99.90;;;12.29;100.00;102631.72;5033860;28;20045;-61
2024/02/19 08:25:12;;;;;;;19.45;6.47;;;12.10;99.90;;;12.27;100.00;102638.75;5034426;28;19921;-61
2024/02/19 08:27:40;;;;;;;24.08;7.30;;;12.00;99.90;;;12.20;100.00;102626.25;5034631;28;20406;-61
2024/02/19 08:30:09;;;;;;;18.77;6.50;;;12.00;99.90;;;12.25;100.00;102618.38;5034415;28;20126;-61
2024/02/19 08:32:38;;;;;;;18.30;6.05;;;12.00;99.90;;;12.35;100.00;102626.50;5033067;28;20364;-61
2024/02/19 08:35:07;;;;;;;18.33;6.93;;;12.00;99.90;;;12.34;100.00;102618.53;5033041;28;20085;-61
2024/02/19 08:37:35;;;;;;;19.60;6.47;;;12.00;99.90;;;12.39;100.00;102630.09;5034426;28;20050;-61
2024/02/19 08:40:07;;;;;;;22.67;7.18;;;12.10;99.90;;;12.32;100.00;102633.53;5034493;28;20073;-61
2024/02/19 08:42:37;;;;;;;28.65;7.13;;;12.00;99.90;;;12.26;100.00;102623.72;5034176;28;20048;-61
2024/02/19 08:45:08;;;;;;;25.38;7.55;;;12.10;99.90;;;12.21;100.00;102622.75;5034311;28;20407;-63
2024/02/19 08:47:36;;;;;;;24.33;6.65;;;12.00;99.90;;;12.18;100.00;102629.75;5034224;28;20045;-61
2024/02/19 08:50:06;;;;;;;21.67;6.90;;;11.90;99.90;;;12.24;100.00;102627.19;5034103;28;20103;-61
2024/02/19 08:52:35;;;;;;;25.13;7.30;;;12.00;99.90;;;12.20;100.00;102628.00;5034158;28;20041;-61
2024/02/19 08:55:05;;;;;;;21.75;7.43;;;11.90;99.90;;;12.21;100.00;102621.84;5034062;28;20296;-61
2024/02/19 08:57:34;;;;;;;27.52;7.90;;;11.90;99.90;;;12.19;100.00;102613.88;5033291;28;20446;-61
2024/02/19 09:00:04;;;;;;;21.92;7.93;;;11.90;99.90;;;12.22;100.00;102598.00;5033645;28;20037;-61
2024/02/19 09:02:32;;;;;;;21.70;8.18;;;12.00;99.90;;;12.27;100.00;102609.56;5034474;28;20051;-61
2024/02/19 09:05:01;;;;;;;17.67;8.05;;;12.00;99.90;;;12.31;100.00;102607.88;5034257;28;20127;-61
2024/02/19 09:07:29;;;;;;;21.73;7.55;;;12.00;99.90;;;12.40;100.00;102603.59;5034016;28;20046;-61
2024/02/19 09:09:58;;;;;;;20.20;7.90;;;12.10;99.90;;;12.43;100.00;102602.75;5033732;28;20111;-62
2024/02/19 09:12:28;;;;;;;21.15;7.63;;;12.20;99.90;;;12.46;100.00;102602.81;5034643;28;20049;-62
2024/02/19 09:14:58;;;;;;;20.40;7.80;;;12.10;99.90;;;12.53;100.00;102588.75;5034152;28;20107;-63
2024/02/19 09:17:26;;;;;;;19.88;7.38;;;12.20;99.90;;;12.47;100.00;102594.84;5032917;28;20045;-62
2024/02/19 09:19:55;;;;;;;18.55;7.55;;;12.20;99.90;;;12.48;100.00;102588.69;5033699;28;20464;-62
2024/02/19 09:22:24;;;;;;;19.77;7.10;;;12.20;99.90;;;12.49;100.00;102597.53;5033549;28;20099;-62
2024/02/19 09:24:52;;;;;;;21.30;7.85;;;12.20;99.90;;;12.45;100.00;102587.72;5033188;28;20161;-61
2024/02/19 09:27:21;;;;;;;21.73;8.52;;;12.20;99.90;;;12.45;100.00;102593.03;5033481;28;20048;-61
2024/02/19 09:29:51;;;;;;;21.25;7.68;;;12.20;99.90;;;12.53;100.00;102579.03;5033193;28;20060;-61
2024/02/19 09:32:19;;;;;;;22.20;7.30;;;12.20;99.90;;;12.52;100.00;102571.06;5032192;28;20045;-62
2024/02/19 09:34:47;;;;;;;18.98;6.88;;;12.30;99.90;;;12.58;100.00;102576.47;5033438;28;20042;-61
2024/02/19 09:37:16;;;;;;;19.55;7.40;;;12.30;99.90;;;12.64;100.00;102571.22;5033050;28;20045;-61
2024/02/19 09:39:49;;;;;;;19.98;7.32;;;12.40;99.90;;;12.68;100.00;102568.63;5033447;28;20053;-61
2024/02/19 09:42:18;;;;;;;17.15;7.45;;;12.40;99.90;;;12.80;100.00;102572.31;5032026;28;20132;-61
2024/02/19 09:44:46;;;;;;;26.83;7.18;;;12.50;99.90;;;12.81;100.00;102574.13;5033307;28;20053;-61
2024/02/19 09:47:19;;;;;;;15.93;6.85;;;12.50;99.90;;;12.91;100.00;102571.59;5032983;28;20446;-62
2024/02/19 09:49:48;;;;;;;18.52;6.65;;;12.60;99.90;;;12.88;100.00;102570.66;5033333;28;20046;-61
2024/02/19 09:52:22;;;;;;;14.88;6.57;;;12.60;99.90;;;12.96;100.00;102576.97;5033281;28;20084;-62
2024/02/19 09:54:56;;;;;;;26.42;7.95;;;12.70;99.90;;;12.94;100.00;102571.66;5033233;28;20131;-61
2024/02/19 09:57:28;;;;;;;20.23;7.32;;;12.70;99.90;;;13.02;100.00;102571.75;5033511;28;20053;-62
2024/02/19 09:59:58;;;;;;;23.38;7.10;;;12.70;99.90;;;13.11;100.00;102559.50;5033178;28;20054;-62
2024/02/19 10:02:29;;;;;;;22.00;7.82;;;12.80;99.90;;;13.09;100.00;102555.94;5033302;28;20092;-62
2024/02/19 10:04:59;;;;;;;17.05;7.00;;;12.80;99.90;;;13.03;100.00;102561.16;5032889;28;20041;-62
2024/02/19 10:07:28;;;;;;;;;;;12.70;99.90;;;13.05;100.00;102558.53;5032949;28;20049;-61